Time;durP1;ratioP1;P1;durP2;ratioP2;P2;SDS_P1;SDS_P2;PMS_P1;PMS_P2;Temp;Humidity;BMP_temperature;BMP_pressure;BME280_temperature;BME280_humidity;BME280_pressure;Samples;Min_cycle;Max_cycle;Signal;HPM_P1;HPM_P2
2023/03/21 00:02:10;;;;;;;46.20;19.73;;;9.60;96.30;;;;;;5093153;28;20223;-66
2023/03/21 00:04:37;;;;;;;33.93;19.40;;;9.60;96.30;;;;;;5089815;28;20230;-65
2023/03/21 00:07:17;;;;;;;20.10;17.70;;;9.60;96.30;;;;;;5080076;28;20263;-66
2023/03/21 00:09:44;;;;;;;23.53;18.20;;;9.60;96.30;;;;;;5090394;28;20226;-65
2023/03/21 00:12:11;;;;;;;22.87;18.57;;;9.50;96.20;;;;;;5087472;28;20666;-66
2023/03/21 00:14:38;;;;;;;25.00;18.27;;;9.50;96.20;;;;;;5092786;28;20199;-66
2023/03/21 00:17:05;;;;;;;20.83;18.37;;;9.40;96.10;;;;;;5087544;28;20237;-66
2023/03/21 00:19:37;;;;;;;22.97;18.77;;;9.40;96.00;;;;;;5092513;28;20214;-65
2023/03/21 00:22:04;;;;;;;21.73;19.47;;;9.30;96.00;;;;;;5087808;28;20213;-68
2023/03/21 00:24:35;;;;;;;20.90;18.30;;;9.30;96.10;;;;;;5089275;28;20205;-66
2023/03/21 00:27:03;;;;;;;20.47;18.27;;;9.30;96.20;;;;;;5089441;28;20256;-66
2023/03/21 00:29:50;;;;;;;21.97;18.60;;;9.30;96.20;;;;;;5100247;28;20225;-66
2023/03/21 00:32:20;;;;;;;19.77;17.10;;;9.30;96.30;;;;;;5088919;28;20195;-66
2023/03/21 00:34:47;;;;;;;21.03;18.63;;;9.30;96.30;;;;;;5092814;28;20251;-66
2023/03/21 00:37:32;;;;;;;19.20;16.67;;;9.30;96.20;;;;;;5103800;28;20207;-66
2023/03/21 00:39:59;;;;;;;21.73;18.00;;;9.20;96.10;;;;;;5091876;28;20216;-66
2023/03/21 00:42:28;;;;;;;19.50;17.47;;;9.20;96.00;;;;;;5103402;28;20199;-66
2023/03/21 00:44:55;;;;;;;19.03;17.03;;;9.20;96.00;;;;;;5088975;28;20235;-65
2023/03/21 00:47:22;;;;;;;19.63;17.63;;;9.20;96.00;;;;;;5091934;28;20293;-65
2023/03/21 00:49:51;;;;;;;19.43;16.90;;;9.20;96.30;;;;;;5089130;28;20828;-66
2023/03/21 00:52:18;;;;;;;17.50;15.07;;;9.20;96.00;;;;;;5088329;28;20199;-66
2023/03/21 00:55:06;;;;;;;16.77;15.00;;;9.20;96.00;;;;;;5092234;28;20219;-66
2023/03/21 00:57:33;;;;;;;19.57;17.53;;;9.10;95.90;;;;;;5085213;28;20278;-65
2023/03/21 01:00:09;;;;;;;19.63;17.63;;;9.10;95.90;;;;;;5087024;28;20248;-66
2023/03/21 01:02:37;;;;;;;19.40;16.47;;;9.10;95.90;;;;;;5089150;28;20210;-66
2023/03/21 01:05:04;;;;;;;19.57;17.57;;;9.10;95.80;;;;;;5090194;28;20207;-66
2023/03/21 01:07:31;;;;;;;19.63;16.37;;;9.10;95.90;;;;;;5092692;28;20207;-66
2023/03/21 01:09:58;;;;;;;21.30;18.63;;;9.00;95.80;;;;;;5088653;28;20218;-66
2023/03/21 01:12:26;;;;;;;19.67;17.27;;;9.00;95.80;;;;;;5090746;28;20206;-65
2023/03/21 01:14:54;;;;;;;21.67;18.90;;;9.00;95.80;;;;;;5085314;28;20231;-66
2023/03/21 01:17:21;;;;;;;23.10;19.40;;;9.00;95.80;;;;;;5086533;28;20233;-67
2023/03/21 01:19:48;;;;;;;23.17;19.80;;;9.00;95.80;;;;;;5092151;28;20203;-65
2023/03/21 01:22:18;;;;;;;25.23;21.20;;;9.00;95.90;;;;;;5073649;28;20308;-66
2023/03/21 01:24:46;;;;;;;25.07;21.17;;;9.00;95.90;;;;;;5091944;28;20210;-65
2023/03/21 01:27:24;;;;;;;29.93;24.07;;;8.90;95.80;;;;;;5087950;28;20289;-65
2023/03/21 01:29:51;;;;;;;30.53;23.87;;;9.00;95.90;;;;;;5090495;28;20757;-65
2023/03/21 01:32:18;;;;;;;32.17;26.07;;;9.00;95.90;;;;;;5087824;28;20225;-66
2023/03/21 01:34:45;;;;;;;36.87;26.77;;;8.90;95.90;;;;;;5090434;28;20244;-66
2023/03/21 01:37:13;;;;;;;32.37;24.37;;;8.90;95.90;;;;;;5084167;28;20574;-66
2023/03/21 01:39:45;;;;;;;37.50;27.97;;;9.00;95.90;;;;;;5089802;28;20714;-66
2023/03/21 01:42:13;;;;;;;38.93;28.13;;;9.00;95.90;;;;;;5088778;28;20241;-65
2023/03/21 01:45:01;;;;;;;41.20;31.00;;;9.00;95.90;;;;;;5081584;28;20243;-66
2023/03/21 01:47:43;;;;;;;41.23;32.70;;;8.90;95.90;;;;;;5088858;28;20302;-66
2023/03/21 01:50:24;;;;;;;50.00;36.27;;;9.00;96.20;;;;;;5105641;28;20213;-66
2023/03/21 01:53:10;;;;;;;50.00;36.00;;;9.00;95.90;;;;;;5094368;28;20289;-65
2023/03/21 01:55:38;;;;;;;51.83;36.80;;;9.00;95.90;;;;;;5093027;28;20639;-65
2023/03/21 01:58:23;;;;;;;45.33;34.80;;;9.00;96.00;;;;;;5094519;28;20548;-66
2023/03/21 02:01:05;;;;;;;46.30;33.60;;;9.00;96.00;;;;;;5093008;28;20205;-66
2023/03/21 02:03:49;;;;;;;44.93;34.70;;;9.00;96.30;;;;;;5089731;28;20191;-66
2023/03/21 02:06:42;;;;;;;58.63;37.73;;;9.00;96.20;;;;;;5110586;28;20731;-66
2023/03/21 02:09:49;;;;;;;49.60;36.43;;;9.00;96.00;;;;;;5081921;28;20202;-66
2023/03/21 02:12:20;;;;;;;53.13;38.50;;;9.00;96.00;;;;;;5063562;28;20542;-65
2023/03/21 02:14:50;;;;;;;55.60;38.33;;;9.00;96.00;;;;;;5088555;28;20199;-66
2023/03/21 02:17:49;;;;;;;56.07;39.17;;;9.00;96.10;;;;;;5093021;28;20634;-66
2023/03/21 02:20:42;;;;;;;57.50;40.27;;;9.00;96.10;;;;;;5104108;28;20232;-66
2023/03/21 02:23:12;;;;;;;49.03;36.37;;;9.00;96.10;;;;;;5088471;28;20228;-66
2023/03/21 02:26:00;;;;;;;57.67;42.03;;;9.00;96.10;;;;;;5085611;28;20230;-66
2023/03/21 02:28:38;;;;;;;61.50;43.13;;;9.00;96.20;;;;;;5101294;28;20203;-66
2023/03/21 02:31:42;;;;;;;65.33;46.07;;;8.90;96.20;;;;;;5093248;28;20301;-66
2023/03/21 02:34:28;;;;;;;55.83;41.63;;;9.00;96.30;;;;;;5101460;28;20243;-66
2023/03/21 02:37:17;;;;;;;58.53;43.43;;;9.00;96.30;;;;;;5109376;28;20640;-66
2023/03/21 02:39:47;;;;;;;61.77;41.47;;;9.00;96.40;;;;;;5091022;28;20200;-66
2023/03/21 02:42:45;;;;;;;59.13;41.87;;;9.00;96.40;;;;;;5089858;28;20199;-66
2023/03/21 02:45:46;;;;;;;54.03;38.10;;;9.00;96.40;;;;;;5090692;28;20207;-65
2023/03/21 02:48:21;;;;;;;60.63;40.97;;;9.00;96.30;;;;;;5093589;28;20571;-66
2023/03/21 02:50:59;;;;;;;59.50;40.00;;;9.00;96.20;;;;;;5089615;28;20215;-66
2023/03/21 02:53:32;;;;;;;50.70;37.57;;;9.00;96.20;;;;;;5093803;28;20185;-66
2023/03/21 02:56:03;;;;;;;56.20;38.30;;;8.90;96.20;;;;;;5083420;28;20208;-66
2023/03/21 02:58:34;;;;;;;55.40;38.87;;;8.90;96.20;;;;;;5093657;28;20297;-66
2023/03/21 03:01:07;;;;;;;51.60;35.57;;;8.90;96.20;;;;;;5089965;28;20207;-66
2023/03/21 03:03:41;;;;;;;53.03;37.30;;;8.90;96.20;;;;;;5082464;28;20272;-65
2023/03/21 03:06:26;;;;;;;53.17;38.53;;;8.90;96.20;;;;;;5093437;28;20191;-66
2023/03/21 03:08:54;;;;;;;52.80;37.27;;;8.90;96.30;;;;;;5089109;28;20216;-66
2023/03/21 03:11:36;;;;;;;51.63;35.83;;;8.80;96.30;;;;;;5087979;28;20549;-66
2023/03/21 03:14:45;;;;;;;49.23;34.27;;;8.80;96.20;;;;;;5090949;28;20204;-66
2023/03/21 03:18:08;;;;;;;49.47;36.57;;;8.80;96.20;;;;;;5099601;28;20217;-68
2023/03/21 03:20:51;;;;;;;47.97;35.83;;;8.70;96.10;;;;;;5086249;28;20245;-66
2023/03/21 03:23:41;;;;;;;53.97;38.23;;;8.70;96.10;;;;;;5081624;28;20602;-65
2023/03/21 03:26:27;;;;;;;58.67;39.40;;;8.70;96.10;;;;;;5092279;28;20600;-66
2023/03/21 03:29:01;;;;;;;57.17;39.13;;;8.70;96.20;;;;;;5089622;28;20205;-66
2023/03/21 03:31:34;;;;;;;53.90;38.33;;;8.70;96.20;;;;;;5087222;28;20681;-65
2023/03/21 03:34:08;;;;;;;58.77;41.23;;;8.70;96.20;;;;;;5086234;28;20690;-66
2023/03/21 03:36:50;;;;;;;54.77;39.57;;;8.70;96.30;;;;;;5074873;28;20284;-66
2023/03/21 03:39:18;;;;;;;53.53;37.97;;;8.70;96.30;;;;;;5094243;28;20676;-66
2023/03/21 03:42:00;;;;;;;58.93;38.47;;;8.70;96.30;;;;;;5102768;28;20338;-66
2023/03/21 03:44:53;;;;;;;50.40;35.07;;;8.70;96.30;;;;;;5095030;28;20242;-65
2023/03/21 03:47:41;;;;;;;55.80;38.97;;;8.60;96.30;;;;;;5092744;28;20253;-65
2023/03/21 03:50:36;;;;;;;50.57;34.23;;;8.60;96.30;;;;;;5084396;28;20248;-65
2023/03/21 03:53:31;;;;;;;50.67;36.17;;;8.50;96.20;;;;;;5092512;28;20209;-66
2023/03/21 03:55:59;;;;;;;48.30;35.10;;;8.50;96.20;;;;;;5105261;28;20265;-65
2023/03/21 03:58:30;;;;;;;49.27;33.43;;;8.40;96.20;;;;;;5077027;28;20204;-65
2023/03/21 04:01:13;;;;;;;48.60;34.03;;;8.40;96.20;;;;;;5108287;28;20289;-65
2023/03/21 04:03:44;;;;;;;48.73;34.07;;;8.40;96.20;;;;;;5072510;28;20654;-66
2023/03/21 04:06:18;;;;;;;53.93;34.83;;;8.40;96.20;;;;;;5086105;28;20292;-65
2023/03/21 04:08:49;;;;;;;49.20;35.13;;;8.30;96.10;;;;;;5092372;28;20198;-66
2023/03/21 04:11:18;;;;;;;48.63;34.03;;;8.30;96.10;;;;;;5092660;28;20292;-66
2023/03/21 04:13:50;;;;;;;51.57;35.53;;;8.30;96.20;;;;;;5089880;28;20671;-66
2023/03/21 04:16:22;;;;;;;45.47;33.73;;;8.30;96.20;;;;;;5107753;28;20263;-66
2023/03/21 04:18:51;;;;;;;45.77;30.43;;;8.30;96.20;;;;;;5092647;28;20519;-66
2023/03/21 04:21:20;;;;;;;43.77;31.93;;;8.30;96.20;;;;;;5105602;28;20207;-66
2023/03/21 04:23:47;;;;;;;48.40;34.57;;;8.30;96.10;;;;;;5093641;28;20209;-66
2023/03/21 04:26:14;;;;;;;49.87;35.23;;;8.30;96.10;;;;;;5091229;28;20261;-66
2023/03/21 04:28:50;;;;;;;49.27;36.23;;;8.30;96.10;;;;;;5080570;28;20212;-67
2023/03/21 04:31:56;;;;;;;52.50;35.73;;;8.30;96.10;;;;;;5069722;28;20215;-66
2023/03/21 04:34:26;;;;;;;57.77;37.70;;;8.30;96.10;;;;;;5068868;28;20204;-66
2023/03/21 04:36:57;;;;;;;50.47;35.40;;;8.30;96.20;;;;;;5073185;28;20209;-66
2023/03/21 04:39:24;;;;;;;51.80;37.43;;;8.30;96.20;;;;;;5092468;28;20581;-68
2023/03/21 04:41:51;;;;;;;49.53;34.67;;;8.30;96.20;;;;;;5091764;28;20631;-66
2023/03/21 04:44:18;;;;;;;49.23;33.37;;;8.30;96.30;;;;;;5096817;28;20242;-66
2023/03/21 04:46:45;;;;;;;48.87;32.93;;;8.30;96.30;;;;;;5092611;28;20717;-66
2023/03/21 04:49:13;;;;;;;48.43;34.50;;;8.30;96.30;;;;;;5092514;28;20643;-66
2023/03/21 04:51:44;;;;;;;48.47;34.93;;;8.30;96.30;;;;;;5089823;28;20242;-66
2023/03/21 04:54:12;;;;;;;55.00;36.67;;;8.30;96.30;;;;;;5089753;28;20211;-66
2023/03/21 04:56:41;;;;;;;55.83;36.80;;;8.30;96.30;;;;;;5089559;28;20229;-66
2023/03/21 04:59:13;;;;;;;49.30;35.37;;;8.30;96.30;;;;;;5092245;28;20546;-66
2023/03/21 05:01:42;;;;;;;51.37;36.57;;;8.30;96.40;;;;;;5092822;28;20199;-66
2023/03/21 05:04:11;;;;;;;48.73;34.87;;;8.30;96.40;;;;;;5081861;28;20305;-66
2023/03/21 05:06:41;;;;;;;55.80;37.67;;;8.30;96.40;;;;;;5092927;28;20225;-66
2023/03/21 05:09:08;;;;;;;58.80;38.00;;;8.20;96.30;;;;;;5088529;28;20202;-67
2023/03/21 05:11:39;;;;;;;50.33;33.70;;;8.20;96.20;;;;;;5086513;28;20214;-66
2023/03/21 05:14:10;;;;;;;53.40;36.07;;;8.20;96.20;;;;;;5072561;28;20201;-66
2023/03/21 05:16:47;;;;;;;48.97;35.17;;;8.20;96.20;;;;;;5089231;28;20238;-66
2023/03/21 05:19:16;;;;;;;52.67;35.70;;;8.20;96.20;;;;;;5091310;28;20200;-66
2023/03/21 05:21:45;;;;;;;48.57;33.23;;;8.10;96.00;;;;;;5086023;28;21109;-66
2023/03/21 05:24:19;;;;;;;47.70;30.87;;;8.10;96.00;;;;;;5089522;28;20217;-67
2023/03/21 05:26:51;;;;;;;47.13;32.73;;;8.10;96.10;;;;;;5082840;28;20245;-66
2023/03/21 05:29:22;;;;;;;52.70;33.87;;;8.00;96.10;;;;;;5093097;28;20211;-66
2023/03/21 05:31:54;;;;;;;48.63;35.03;;;8.00;96.10;;;;;;5093419;28;20278;-66
2023/03/21 05:34:23;;;;;;;55.27;37.63;;;8.00;96.20;;;;;;5081959;28;20206;-65
2023/03/21 05:36:50;;;;;;;56.57;37.57;;;8.10;96.30;;;;;;5092036;28;20525;-66
2023/03/21 05:39:18;;;;;;;48.57;35.10;;;8.10;96.40;;;;;;5096468;28;20636;-65
2023/03/21 05:41:57;;;;;;;49.27;37.13;;;8.10;96.40;;;;;;5092981;28;20217;-66
2023/03/21 05:44:25;;;;;;;58.23;37.37;;;8.20;96.50;;;;;;5093188;28;20400;-66
2023/03/21 05:46:52;;;;;;;52.27;35.80;;;8.30;96.60;;;;;;5095649;28;20221;-66
2023/03/21 05:49:25;;;;;;;52.60;35.87;;;8.30;96.90;;;;;;5096285;28;20221;-66
2023/03/21 05:51:57;;;;;;;47.53;33.57;;;8.40;96.60;;;;;;5095331;28;20228;-66
2023/03/21 05:54:25;;;;;;;48.50;34.90;;;8.40;96.60;;;;;;5085334;28;20207;-66
2023/03/21 05:56:53;;;;;;;46.77;32.53;;;8.50;96.60;;;;;;5094952;28;20629;-66
2023/03/21 05:59:30;;;;;;;46.03;33.50;;;8.50;96.60;;;;;;5079881;28;20522;-66
2023/03/21 06:01:57;;;;;;;48.23;34.63;;;8.60;96.60;;;;;;5093079;28;20209;-66
2023/03/21 06:04:25;;;;;;;51.10;36.50;;;8.70;96.70;;;;;;5094130;28;20198;-66
2023/03/21 06:06:52;;;;;;;42.77;33.37;;;8.80;96.60;;;;;;5093342;28;20214;-66
2023/03/21 06:09:22;;;;;;;47.60;34.10;;;8.90;96.60;;;;;;5094309;28;20248;-65
2023/03/21 06:11:55;;;;;;;46.47;33.13;;;8.90;96.60;;;;;;5077608;28;20239;-66
2023/03/21 06:14:30;;;;;;;45.70;32.07;;;9.00;96.60;;;;;;5070508;28;20202;-66
2023/03/21 06:17:12;;;;;;;45.53;32.00;;;9.10;96.60;;;;;;5108118;28;20214;-66
2023/03/21 06:19:46;;;;;;;42.40;32.90;;;9.20;96.60;;;;;;5092275;28;20203;-65
2023/03/21 06:22:35;;;;;;;41.70;31.23;;;9.30;96.60;;;;;;5092281;28;20726;-66
2023/03/21 06:25:04;;;;;;;44.43;31.23;;;9.50;96.60;;;;;;5093711;28;20333;-66
2023/03/21 06:27:31;;;;;;;41.33;29.93;;;9.60;96.40;;;;;;5092789;28;20269;-66
2023/03/21 06:29:58;;;;;;;41.67;29.30;;;9.70;96.40;;;;;;5092065;28;20204;-65
2023/03/21 06:32:30;;;;;;;40.47;29.60;;;9.80;96.40;;;;;;5093018;28;20676;-66
2023/03/21 06:35:06;;;;;;;40.23;30.63;;;10.00;96.20;;;;;;5088385;28;20205;-67
2023/03/21 06:37:34;;;;;;;37.47;27.57;;;10.10;96.00;;;;;;5094770;28;20207;-66
2023/03/21 06:40:03;;;;;;;35.33;26.67;;;10.20;96.00;;;;;;5096183;28;20201;-66
2023/03/21 06:42:31;;;;;;;36.37;28.27;;;10.40;95.90;;;;;;5095510;28;20226;-66
2023/03/21 06:45:05;;;;;;;37.93;27.37;;;10.50;95.60;;;;;;5092404;28;20231;-66
2023/03/21 06:47:32;;;;;;;35.83;25.67;;;10.70;95.50;;;;;;5086173;28;20649;-65
2023/03/21 06:50:05;;;;;;;35.93;25.00;;;10.70;95.30;;;;;;5093891;28;20204;-66
2023/03/21 06:52:39;;;;;;;29.97;24.00;;;10.80;95.20;;;;;;5090579;28;20539;-65
2023/03/21 06:55:06;;;;;;;35.50;25.33;;;10.90;95.20;;;;;;5093507;28;20716;-66
2023/03/21 06:57:33;;;;;;;31.47;25.37;;;11.00;95.00;;;;;;5103668;28;20559;-66
2023/03/21 07:00:01;;;;;;;31.03;24.27;;;11.10;94.90;;;;;;5093876;28;20205;-66
2023/03/21 07:02:28;;;;;;;29.50;22.47;;;11.20;94.80;;;;;;5091430;28;20201;-66
2023/03/21 07:05:02;;;;;;;29.57;23.70;;;11.40;94.70;;;;;;5094174;28;20286;-66
2023/03/21 07:07:30;;;;;;;29.40;23.93;;;11.40;94.50;;;;;;5093208;28;20241;-66
2023/03/21 07:09:57;;;;;;;31.83;24.03;;;11.50;94.50;;;;;;5094065;28;20650;-66
2023/03/21 07:12:32;;;;;;;31.87;23.80;;;11.60;94.40;;;;;;5093157;28;20305;-65
2023/03/21 07:15:11;;;;;;;31.57;24.33;;;11.60;94.30;;;;;;5090261;28;20255;-68
2023/03/21 07:17:41;;;;;;;35.03;23.60;;;11.70;94.20;;;;;;5086787;28;20201;-65
2023/03/21 07:20:11;;;;;;;27.97;23.73;;;11.80;94.10;;;;;;5093169;28;20200;-66
2023/03/21 07:22:38;;;;;;;27.97;22.27;;;11.90;94.00;;;;;;5096277;28;20215;-66
2023/03/21 07:25:06;;;;;;;30.10;23.13;;;12.00;93.90;;;;;;5089479;28;20211;-65
2023/03/21 07:27:38;;;;;;;27.37;22.30;;;12.10;93.80;;;;;;5087859;28;20211;-66
2023/03/21 07:30:09;;;;;;;28.30;23.83;;;12.20;93.70;;;;;;5091844;28;20289;-66
2023/03/21 07:32:36;;;;;;;29.60;23.30;;;12.20;93.60;;;;;;5090696;28;20301;-66
2023/03/21 07:35:06;;;;;;;28.33;23.87;;;12.30;93.50;;;;;;5087203;28;20205;-66
2023/03/21 07:37:33;;;;;;;30.87;24.37;;;12.40;93.50;;;;;;5089277;28;20206;-65
2023/03/21 07:40:12;;;;;;;31.57;24.07;;;12.50;93.40;;;;;;5090356;28;20246;-66
2023/03/21 07:42:40;;;;;;;28.43;24.07;;;12.70;93.40;;;;;;5091198;28;20271;-65
2023/03/21 07:45:14;;;;;;;26.17;23.37;;;12.80;93.30;;;;;;5089476;28;20238;-66
2023/03/21 07:47:44;;;;;;;28.97;22.23;;;12.90;93.20;;;;;;5088697;28;20208;-67
2023/03/21 07:50:12;;;;;;;30.60;23.27;;;13.10;93.00;;;;;;5092104;28;20205;-66
2023/03/21 07:52:39;;;;;;;28.57;22.87;;;13.20;92.80;;;;;;5093007;28;20212;-66
2023/03/21 07:55:07;;;;;;;29.07;23.17;;;13.30;92.60;;;;;;5091894;28;20248;-66
2023/03/21 07:57:35;;;;;;;27.93;22.83;;;13.50;92.40;;;;;;5094007;28;20189;-67
2023/03/21 08:00:05;;;;;;;28.90;22.67;;;13.70;92.30;;;;;;5092910;28;20515;-66
2023/03/21 08:02:38;;;;;;;30.10;23.73;;;13.80;92.10;;;;;;5094425;28;20632;-65
2023/03/21 08:05:05;;;;;;;31.40;24.27;;;14.00;92.00;;;;;;5093110;28;20229;-66
2023/03/21 08:07:32;;;;;;;29.17;24.23;;;14.10;91.80;;;;;;5089981;28;20207;-66
2023/03/21 08:10:00;;;;;;;30.90;24.70;;;14.30;91.50;;;;;;5089963;28;20605;-66
2023/03/21 08:12:27;;;;;;;27.60;23.30;;;14.40;91.40;;;;;;5087523;28;20971;-66
2023/03/21 08:14:54;;;;;;;27.50;23.27;;;14.60;91.20;;;;;;5092418;28;20205;-66
2023/03/21 08:17:21;;;;;;;33.90;27.77;;;14.80;91.20;;;;;;5090229;28;20277;-66
2023/03/21 08:19:48;;;;;;;29.73;24.77;;;15.00;91.10;;;;;;5090880;28;20279;-66
2023/03/21 08:22:15;;;;;;;28.53;23.93;;;15.10;90.80;;;;;;5093157;28;20231;-65
2023/03/21 08:24:42;;;;;;;24.67;21.53;;;15.30;90.50;;;;;;5090409;28;20585;-65
2023/03/21 08:27:09;;;;;;;26.53;23.17;;;15.50;90.20;;;;;;5092689;28;20220;-66
2023/03/21 08:29:39;;;;;;;24.23;21.40;;;15.60;90.00;;;;;;5091295;28;20228;-66
2023/03/21 08:32:06;;;;;;;25.03;21.03;;;15.80;89.70;;;;;;5090539;28;20210;-66
2023/03/21 08:34:33;;;;;;;23.17;19.77;;;15.90;88.60;;;;;;5092456;28;20511;-66
2023/03/21 08:37:01;;;;;;;26.27;21.97;;;16.00;88.10;;;;;;5088356;28;20197;-66
2023/03/21 08:39:28;;;;;;;29.23;23.20;;;16.20;87.60;;;;;;5076092;28;20194;-65
2023/03/21 08:41:55;;;;;;;28.37;23.90;;;16.30;87.50;;;;;;5088357;28;20243;-66
2023/03/21 08:44:24;;;;;;;27.20;22.43;;;16.50;86.70;;;;;;5093309;28;20302;-66
2023/03/21 08:46:51;;;;;;;32.73;26.07;;;16.50;85.80;;;;;;5089565;28;20198;-66
2023/03/21 08:49:18;;;;;;;26.70;23.80;;;16.60;85.60;;;;;;5089689;28;20272;-66
2023/03/21 08:51:45;;;;;;;31.07;26.50;;;16.70;85.50;;;;;;5088411;28;20272;-65
2023/03/21 08:54:20;;;;;;;31.40;26.17;;;16.90;85.40;;;;;;5088841;28;20504;-66
2023/03/21 08:56:47;;;;;;;33.00;27.67;;;17.00;84.80;;;;;;5093725;28;20619;-66
2023/03/21 08:59:14;;;;;;;46.00;27.53;;;17.10;84.90;;;;;;5091078;28;20194;-66
2023/03/21 09:01:41;;;;;;;34.93;28.47;;;17.20;84.20;;;;;;5090799;28;20212;-66
2023/03/21 09:04:09;;;;;;;33.13;29.27;;;17.30;83.70;;;;;;5091134;28;20195;-66
2023/03/21 09:06:39;;;;;;;31.70;26.67;;;17.40;83.40;;;;;;5089322;28;20204;-66
2023/03/21 09:09:08;;;;;;;36.13;28.70;;;17.50;81.30;;;;;;5090662;28;20218;-66
2023/03/21 09:11:35;;;;;;;36.10;29.63;;;17.50;81.90;;;;;;5079435;28;20207;-66
2023/03/21 09:14:02;;;;;;;35.37;31.57;;;17.60;82.40;;;;;;5089634;28;20211;-66
2023/03/21 09:16:29;;;;;;;35.17;30.40;;;17.70;81.80;;;;;;5093588;28;20620;-66
2023/03/21 09:18:57;;;;;;;37.03;30.97;;;17.80;81.80;;;;;;5090539;28;20227;-66
2023/03/21 09:21:26;;;;;;;37.50;28.93;;;17.90;81.90;;;;;;5090972;28;20593;-66
2023/03/21 09:23:57;;;;;;;36.87;30.87;;;18.00;81.60;;;;;;5089545;28;20288;-66
2023/03/21 09:26:26;;;;;;;38.00;32.10;;;18.10;81.30;;;;;;5090567;28;20204;-66
2023/03/21 09:28:57;;;;;;;41.47;31.83;;;18.20;79.10;;;;;;5091863;28;20208;-67
2023/03/21 09:31:24;;;;;;;33.80;30.17;;;18.20;79.80;;;;;;5089437;28;20201;-66
2023/03/21 09:33:52;;;;;;;38.17;31.57;;;18.30;80.40;;;;;;5090030;28;20236;-66
2023/03/21 09:36:20;;;;;;;41.07;33.60;;;18.40;80.40;;;;;;5093080;28;20200;-66
2023/03/21 09:38:49;;;;;;;39.70;33.30;;;18.50;80.10;;;;;;5089099;28;20203;-66
2023/03/21 09:41:29;;;;;;;36.67;32.37;;;18.60;80.00;;;;;;5091164;28;20552;-66
2023/03/21 09:44:33;;;;;;;35.50;30.60;;;18.70;79.50;;;;;;5088896;28;20328;-67
2023/03/21 09:47:19;;;;;;;37.17;32.47;;;18.90;79.10;;;;;;5089551;28;20628;-66
2023/03/21 09:50:02;;;;;;;38.17;32.27;;;19.00;78.50;;;;;;5087275;28;20214;-66
2023/03/21 09:52:56;;;;;;;39.70;32.43;;;19.10;77.10;;;;;;5092198;28;20315;-66
2023/03/21 09:55:29;;;;;;;40.93;31.77;;;19.20;76.30;;;;;;5087265;28;20204;-66
2023/03/21 09:58:06;;;;;;;40.33;32.97;;;19.30;76.40;;;;;;5091577;28;20207;-66
2023/03/21 10:00:40;;;;;;;38.37;33.17;;;19.40;76.00;;;;;;5090353;28;20200;-67
2023/03/21 10:03:23;;;;;;;35.47;31.23;;;19.40;75.20;;;;;;5092077;28;20207;-66
2023/03/21 10:05:53;;;;;;;35.77;31.87;;;19.60;73.20;;;;;;5087520;28;20223;-66
2023/03/21 10:08:40;;;;;;;38.80;31.47;;;19.40;70.20;;;;;;5087807;28;20204;-66
2023/03/21 10:11:49;;;;;;;38.40;32.07;;;19.30;71.70;;;;;;5091141;28;20258;-66
2023/03/21 10:14:26;;;;;;;40.93;31.40;;;19.30;72.50;;;;;;5061903;28;20962;-66
2023/03/21 10:17:10;;;;;;;38.40;33.80;;;19.30;72.40;;;;;;5085508;28;20212;-66
2023/03/21 10:19:37;;;;;;;39.07;33.17;;;19.30;70.80;;;;;;5093513;28;20658;-66
2023/03/21 10:22:05;;;;;;;38.53;32.97;;;19.20;72.00;;;;;;5093801;28;20207;-66
2023/03/21 10:24:33;;;;;;;39.50;33.97;;;19.20;73.50;;;;;;5096151;28;20212;-66
2023/03/21 10:27:02;;;;;;;39.43;34.10;;;19.30;73.80;;;;;;5090821;28;20200;-66
2023/03/21 10:29:43;;;;;;;39.33;33.53;;;19.50;74.10;;;;;;5096190;28;20196;-67
2023/03/21 10:32:16;;;;;;;36.20;32.07;;;19.60;73.70;;;;;;5089780;28;20221;-67
2023/03/21 10:34:49;;;;;;;39.53;35.27;;;19.80;72.80;;;;;;5096162;28;20614;-66
2023/03/21 10:37:16;;;;;;;40.07;35.70;;;19.90;72.30;;;;;;5092358;28;20559;-66
2023/03/21 10:39:47;;;;;;;41.47;34.90;;;20.00;71.70;;;;;;5094422;28;20198;-67
2023/03/21 10:42:23;;;;;;;41.50;35.77;;;20.10;71.70;;;;;;5093577;28;20204;-66
2023/03/21 10:44:53;;;;;;;44.90;37.03;;;20.20;71.10;;;;;;5094496;28;20247;-66
2023/03/21 10:47:32;;;;;;;46.23;38.80;;;20.30;66.90;;;;;;5088425;28;20247;-67
2023/03/21 10:50:11;;;;;;;41.50;36.47;;;20.20;67.90;;;;;;5094275;28;20533;-67
2023/03/21 10:52:48;;;;;;;43.33;38.33;;;20.20;68.70;;;;;;5088591;28;20295;-66
2023/03/21 10:55:24;;;;;;;45.50;39.20;;;20.30;69.80;;;;;;5093113;28;20272;-67
2023/03/21 10:58:07;;;;;;;46.43;37.90;;;20.40;68.70;;;;;;5095080;28;20203;-66
2023/03/21 11:00:38;;;;;;;42.73;36.63;;;20.40;69.40;;;;;;5092679;28;20515;-67
2023/03/21 11:03:19;;;;;;;45.10;37.63;;;20.50;69.20;;;;;;5095231;28;20209;-67
2023/03/21 11:05:47;;;;;;;42.37;36.40;;;20.60;69.70;;;;;;5092498;28;20213;-67
2023/03/21 11:08:18;;;;;;;48.47;37.53;;;20.70;69.50;;;;;;5094072;28;20197;-67
2023/03/21 11:11:06;;;;;;;41.33;36.70;;;20.80;68.90;;;;;;5090690;28;20216;-67
2023/03/21 11:13:40;;;;;;;42.50;37.90;;;21.00;66.90;;;;;;5094459;28;20232;-67
2023/03/21 11:16:44;;;;;;;41.53;37.10;;;21.00;66.30;;;;;;5096006;28;20489;-67
2023/03/21 11:19:25;;;;;;;41.63;36.30;;;20.90;65.10;;;;;;5092540;28;20634;-67
2023/03/21 11:21:52;;;;;;;43.87;36.77;;;20.90;64.30;;;;;;5092065;28;20202;-67
2023/03/21 11:24:19;;;;;;;40.03;35.63;;;20.80;65.50;;;;;;5094520;28;20659;-67
2023/03/21 11:26:48;;;;;;;38.20;34.23;;;20.80;65.70;;;;;;5093757;28;20292;-67
2023/03/21 11:29:44;;;;;;;42.57;33.20;;;20.90;65.90;;;;;;5094008;28;20513;-66
2023/03/21 11:32:15;;;;;;;38.77;32.73;;;21.00;65.40;;;;;;5092379;28;20564;-67
2023/03/21 11:34:47;;;;;;;39.47;33.73;;;21.10;65.20;;;;;;5090934;28;20201;-67
2023/03/21 11:37:25;;;;;;;38.60;33.97;;;21.20;63.30;;;;;;5084723;28;20205;-67
2023/03/21 11:40:05;;;;;;;42.33;35.43;;;21.20;62.70;;;;;;5090785;28;20192;-67
2023/03/21 11:42:41;;;;;;;43.77;35.67;;;21.20;63.30;;;;;;5091514;28;20190;-68
2023/03/21 11:45:19;;;;;;;39.33;35.03;;;21.30;64.00;;;;;;5091310;28;20243;-67
2023/03/21 11:47:49;;;;;;;38.07;33.77;;;21.30;65.20;;;;;;5091730;28;20246;-67
2023/03/21 11:50:25;;;;;;;34.33;30.13;;;21.40;65.10;;;;;;5093378;28;20197;-67
2023/03/21 11:53:17;;;;;;;35.17;31.37;;;21.40;62.20;;;;;;5088446;28;20255;-67
2023/03/21 11:56:20;;;;;;;30.90;27.27;;;21.30;62.40;;;;;;5091892;28;20532;-67
2023/03/21 11:59:00;;;;;;;33.73;26.70;;;21.20;61.60;;;;;;5089271;28;20215;-67
2023/03/21 12:01:41;;;;;;;33.87;30.03;;;21.10;62.70;;;;;;5093180;28;20197;-67
2023/03/21 12:04:46;;;;;;;39.03;30.77;;;21.10;63.60;;;;;;5091253;28;20201;-67
2023/03/21 12:07:27;;;;;;;35.57;29.93;;;21.30;63.40;;;;;;5092175;28;20199;-67
2023/03/21 12:10:00;;;;;;;28.57;25.53;;;21.40;63.20;;;;;;5089860;28;20269;-67
2023/03/21 12:13:00;;;;;;;31.30;27.33;;;21.50;63.10;;;;;;5092991;28;20200;-67
2023/03/21 12:15:42;;;;;;;31.10;25.27;;;21.60;61.80;;;;;;5083604;28;20276;-67
2023/03/21 12:18:17;;;;;;;31.47;26.70;;;21.70;61.80;;;;;;5092742;28;20514;-67
2023/03/21 12:21:12;;;;;;;30.57;27.27;;;21.80;61.50;;;;;;5083934;28;20254;-67
2023/03/21 12:23:56;;;;;;;34.83;28.50;;;21.80;61.40;;;;;;5090491;28;20542;-68
2023/03/21 12:26:31;;;;;;;31.07;27.03;;;21.90;60.20;;;;;;5093886;28;20205;-67
2023/03/21 12:29:04;;;;;;;29.73;26.53;;;21.80;60.70;;;;;;5090470;28;20204;-67
2023/03/21 12:31:41;;;;;;;32.33;26.17;;;21.80;61.10;;;;;;5091820;28;20223;-67
2023/03/21 12:34:24;;;;;;;28.07;25.07;;;21.80;60.80;;;;;;5087469;28;20259;-67
2023/03/21 12:36:54;;;;;;;31.50;24.67;;;21.80;59.90;;;;;;5093318;28;20189;-67
2023/03/21 12:39:33;;;;;;;25.17;22.47;;;21.80;59.40;;;;;;5088567;28;20205;-67
2023/03/21 12:42:12;;;;;;;26.63;23.60;;;21.90;60.00;;;;;;5092399;28;20208;-67
2023/03/21 12:44:50;;;;;;;22.80;20.23;;;22.00;59.50;;;;;;5090468;28;20240;-67
2023/03/21 12:47:25;;;;;;;14.27;12.00;;;22.00;58.90;;;;;;5090325;28;20211;-67
2023/03/21 12:50:21;;;;;;;16.50;13.63;;;22.10;57.10;;;;;;5088427;28;20204;-67
2023/03/21 12:52:54;;;;;;;145.43;115.63;;;22.00;54.90;;;;;;5088460;28;20229;-67
2023/03/21 12:55:29;;;;;;;25.07;20.80;;;22.00;54.90;;;;;;5090776;28;20211;-67
2023/03/21 12:58:11;;;;;;;20.93;18.30;;;22.00;56.30;;;;;;5090388;28;20209;-67
2023/03/21 13:00:44;;;;;;;22.13;18.63;;;22.10;57.10;;;;;;5089706;28;20204;-67
2023/03/21 13:03:23;;;;;;;1067.67;489.60;;;22.10;57.00;;;;;;5090696;28;20224;-67
2023/03/21 13:06:08;;;;;;;26.07;22.03;;;22.10;56.50;;;;;;5093145;28;20193;-67
2023/03/21 13:08:46;;;;;;;40.60;26.93;;;22.20;56.20;;;;;;5087848;28;20197;-68